Time;durP1;ratioP1;P1;durP2;ratioP2;P2;SDS_P1;SDS_P2;PMS_P1;PMS_P2;Temp;Humidity;BMP_temperature;BMP_pressure;BME280_temperature;BME280_humidity;BME280_pressure;Samples;Min_cycle;Max_cycle;Signal;HPM_P1;HPM_P2
2023/06/23 00:00:30;;;;;;;16.83;10.73;;;26.90;67.50;;;;;;7673532;22;83320;-67
2023/06/23 00:03:33;;;;;;;15.82;10.07;;;27.00;67.50;;;;;;7674024;22;83046;-69
2023/06/23 00:06:34;;;;;;;13.70;9.82;;;26.90;67.40;;;;;;7672999;22;83140;-68
2023/06/23 00:09:37;;;;;;;15.18;11.23;;;27.00;67.40;;;;;;7651344;22;82849;-69
2023/06/23 00:12:41;;;;;;;12.95;10.32;;;27.00;67.50;;;;;;7674185;22;82935;-67
2023/06/23 00:15:41;;;;;;;14.23;10.55;;;27.00;67.40;;;;;;7673324;22;82917;-67
2023/06/23 00:18:42;;;;;;;14.40;10.57;;;26.90;67.40;;;;;;7674763;22;83324;-67
2023/06/23 00:21:44;;;;;;;14.40;10.95;;;26.90;67.40;;;;;;7673055;22;83296;-67
2023/06/23 00:24:45;;;;;;;16.58;10.80;;;27.00;67.40;;;;;;7672466;22;82828;-62
2023/06/23 00:27:45;;;;;;;14.48;10.88;;;26.90;67.30;;;;;;7672738;22;83303;-64
2023/06/23 00:30:46;;;;;;;17.23;11.35;;;26.90;67.20;;;;;;7672224;22;83632;-62
2023/06/23 00:33:47;;;;;;;13.77;10.30;;;26.80;67.30;;;;;;7671434;22;83055;-62
2023/06/23 00:36:48;;;;;;;13.68;9.90;;;26.80;67.20;;;;;;7670309;22;82763;-62
2023/06/23 00:39:49;;;;;;;14.80;10.68;;;26.80;67.50;;;;;;7676121;22;82989;-62
2023/06/23 00:42:52;;;;;;;15.23;10.35;;;26.80;67.40;;;;;;7672778;22;86935;-62
2023/06/23 00:45:53;;;;;;;15.30;10.52;;;26.80;67.20;;;;;;7644098;22;85877;-62
2023/06/23 00:48:53;;;;;;;13.20;10.13;;;26.80;67.30;;;;;;7673025;22;84160;-63
2023/06/23 00:51:54;;;;;;;15.18;10.00;;;26.80;67.30;;;;;;7646403;22;90055;-63
2023/06/23 00:54:55;;;;;;;12.80;9.77;;;26.80;67.30;;;;;;7672680;22;82906;-63
2023/06/23 00:57:55;;;;;;;12.45;9.75;;;26.80;67.30;;;;;;7678970;22;83631;-62
2023/06/23 01:00:56;;;;;;;12.65;9.93;;;26.80;67.20;;;;;;7652217;22;81488;-63
2023/06/23 01:03:57;;;;;;;20.05;11.48;;;26.90;67.20;;;;;;7678166;22;80287;-63
2023/06/23 01:06:57;;;;;;;13.88;10.38;;;26.90;67.10;;;;;;7647269;22;83300;-64
2023/06/23 01:09:58;;;;;;;16.17;10.45;;;26.90;67.00;;;;;;7674105;22;83369;-64
2023/06/23 01:12:59;;;;;;;16.17;10.68;;;26.90;67.00;;;;;;7646767;22;86263;-64
2023/06/23 01:15:59;;;;;;;16.67;10.73;;;26.80;66.90;;;;;;7674025;22;82778;-63
2023/06/23 01:19:00;;;;;;;13.25;9.82;;;26.80;67.00;;;;;;7646902;22;86020;-58
2023/06/23 01:22:00;;;;;;;14.23;10.38;;;26.80;66.90;;;;;;7679314;22;82858;-59
2023/06/23 01:25:01;;;;;;;13.95;10.13;;;26.80;67.00;;;;;;7647423;22;82973;-58
2023/06/23 01:28:01;;;;;;;14.38;10.32;;;26.70;66.90;;;;;;7673316;22;83126;-58
2023/06/23 01:31:02;;;;;;;14.07;11.13;;;26.70;67.20;;;;;;7673384;22;82995;-58
2023/06/23 01:34:03;;;;;;;12.20;9.65;;;26.70;67.30;;;;;;7673722;22;83447;-58
2023/06/23 01:37:04;;;;;;;14.00;10.65;;;26.70;67.30;;;;;;7650672;22;85993;-70
2023/06/23 01:40:06;;;;;;;13.13;9.88;;;26.70;67.30;;;;;;7673880;22;82736;-70
2023/06/23 01:43:07;;;;;;;15.45;10.30;;;26.70;67.30;;;;;;7651356;22;86524;-70
2023/06/23 01:46:08;;;;;;;13.95;10.65;;;26.70;67.10;;;;;;7674764;22;83372;-73
2023/06/23 01:49:10;;;;;;;15.95;10.35;;;26.70;67.10;;;;;;7674660;22;83877;-73
2023/06/23 01:52:10;;;;;;;16.15;11.85;;;26.80;67.10;;;;;;7648809;22;85588;-74
2023/06/23 01:55:11;;;;;;;16.13;10.63;;;26.80;66.90;;;;;;7674303;22;83515;-64
2023/06/23 01:58:13;;;;;;;12.90;9.70;;;26.80;66.80;;;;;;7645828;22;84193;-65
2023/06/23 02:01:13;;;;;;;17.02;10.90;;;26.80;66.80;;;;;;7646630;22;85954;-65
2023/06/23 02:04:14;;;;;;;14.25;10.50;;;26.80;66.70;;;;;;7673581;22;83700;-65
2023/06/23 02:07:15;;;;;;;12.45;9.70;;;26.70;66.70;;;;;;7672595;22;89688;-65
2023/06/23 02:10:16;;;;;;;17.40;10.18;;;26.70;66.80;;;;;;7678179;22;82824;-66
2023/06/23 02:13:17;;;;;;;16.48;10.48;;;26.70;66.80;;;;;;7646457;22;82875;-66
2023/06/23 02:16:17;;;;;;;11.80;9.75;;;26.70;66.90;;;;;;7646016;22;86199;-62
2023/06/23 02:19:18;;;;;;;14.77;10.55;;;26.70;66.80;;;;;;7649629;22;84484;-62
2023/06/23 02:22:18;;;;;;;15.73;9.93;;;26.70;66.70;;;;;;7646517;22;83818;-62
2023/06/23 02:25:19;;;;;;;16.10;11.55;;;26.70;66.70;;;;;;7649900;22;85986;-62
2023/06/23 02:28:20;;;;;;;13.02;10.38;;;26.70;66.60;;;;;;7673225;22;82720;-62
2023/06/23 02:31:21;;;;;;;14.70;9.98;;;26.70;66.70;;;;;;7646545;22;85922;-58
2023/06/23 02:34:22;;;;;;;12.88;9.85;;;26.70;66.70;;;;;;7672735;22;83051;-58
2023/06/23 02:37:23;;;;;;;12.68;9.98;;;26.60;66.60;;;;;;7677258;22;83052;-58
2023/06/23 02:40:25;;;;;;;13.73;9.82;;;26.60;66.60;;;;;;7674589;22;82899;-58
2023/06/23 02:43:26;;;;;;;15.18;10.40;;;26.60;66.80;;;;;;7678405;22;83710;-59
2023/06/23 02:46:27;;;;;;;13.60;10.00;;;26.60;66.70;;;;;;7675102;22;82773;-59
2023/06/23 02:49:28;;;;;;;15.65;10.77;;;26.60;66.60;;;;;;7646774;22;86357;-58
2023/06/23 02:52:28;;;;;;;17.80;10.38;;;26.70;66.70;;;;;;7674219;22;83314;-58
2023/06/23 02:55:29;;;;;;;13.27;10.70;;;26.70;66.70;;;;;;7674381;22;83251;-58
2023/06/23 02:58:29;;;;;;;15.75;10.68;;;26.70;66.60;;;;;;7647302;22;83207;-58
2023/06/23 03:01:31;;;;;;;15.98;11.35;;;26.70;66.60;;;;;;7645921;22;85707;-58
2023/06/23 03:04:32;;;;;;;15.63;10.18;;;26.60;66.50;;;;;;7646873;22;85727;-58
2023/06/23 03:07:33;;;;;;;16.85;11.00;;;26.60;66.40;;;;;;7671689;22;83289;-58
2023/06/23 03:10:34;;;;;;;14.32;10.82;;;26.60;66.40;;;;;;7672088;22;82818;-57
2023/06/23 03:13:35;;;;;;;15.38;11.25;;;26.60;66.40;;;;;;7673957;22;82907;-58
2023/06/23 03:16:35;;;;;;;14.82;11.38;;;26.60;66.50;;;;;;7673904;22;83629;-56
2023/06/23 03:19:38;;;;;;;24.67;11.77;;;26.60;66.50;;;;;;7673830;22;84140;-58
2023/06/23 03:22:39;;;;;;;14.80;11.00;;;26.70;66.70;;;;;;7673704;22;82754;-58
2023/06/23 03:25:42;;;;;;;15.02;11.05;;;26.60;66.70;;;;;;7646628;22;84476;-59
2023/06/23 03:28:43;;;;;;;15.93;11.50;;;26.60;66.70;;;;;;7646684;22;85759;-59
2023/06/23 03:31:43;;;;;;;17.75;11.32;;;26.60;66.80;;;;;;7673996;22;83084;-59
2023/06/23 03:34:46;;;;;;;17.42;12.05;;;26.60;66.90;;;;;;7646802;22;85969;-58
2023/06/23 03:37:46;;;;;;;14.77;11.43;;;26.60;66.90;;;;;;7673951;22;83026;-58
2023/06/23 03:40:47;;;;;;;21.73;12.07;;;26.50;66.90;;;;;;7674164;22;83591;-59
2023/06/23 03:43:47;;;;;;;17.20;11.52;;;26.60;67.10;;;;;;7673617;22;83060;-59
2023/06/23 03:46:48;;;;;;;15.13;11.13;;;26.50;67.00;;;;;;7673161;22;82916;-60
2023/06/23 03:49:48;;;;;;;17.58;12.52;;;26.60;67.00;;;;;;7674212;22;82981;-61
2023/06/23 03:52:49;;;;;;;15.38;11.73;;;26.60;67.20;;;;;;7673326;22;83776;-60
2023/06/23 03:55:49;;;;;;;18.35;11.55;;;26.60;67.30;;;;;;7674365;22;83458;-58
2023/06/23 03:58:50;;;;;;;14.63;11.45;;;26.60;67.30;;;;;;7619824;22;84407;-58
2023/06/23 04:01:51;;;;;;;16.58;12.13;;;26.60;67.50;;;;;;7671776;22;83162;-58
2023/06/23 04:04:51;;;;;;;17.45;11.63;;;26.60;67.80;;;;;;7673151;22;82849;-70
2023/06/23 04:07:52;;;;;;;15.27;12.40;;;26.60;67.40;;;;;;7674200;22;83984;-69
2023/06/23 04:10:52;;;;;;;16.63;11.82;;;26.60;67.40;;;;;;7672350;22;82924;-70
2023/06/23 04:13:53;;;;;;;15.73;11.18;;;26.70;67.80;;;;;;7672833;22;84177;-65
2023/06/23 04:16:53;;;;;;;19.13;11.80;;;26.70;67.80;;;;;;7672645;22;83545;-64
2023/06/23 04:19:54;;;;;;;14.82;11.40;;;26.70;68.00;;;;;;7673267;22;83263;-70
2023/06/23 04:22:54;;;;;;;16.48;11.15;;;26.70;68.30;;;;;;7673702;22;85249;-68
2023/06/23 04:25:55;;;;;;;17.15;12.02;;;26.70;68.20;;;;;;7673623;22;83073;-71
2023/06/23 04:28:55;;;;;;;16.27;11.98;;;26.80;68.40;;;;;;7674956;22;83296;-70
2023/06/23 04:31:56;;;;;;;20.85;11.18;;;26.80;68.40;;;;;;7674628;22;83167;-64
2023/06/23 04:34:57;;;;;;;17.15;10.95;;;26.80;68.40;;;;;;7676004;22;82998;-68
2023/06/23 04:37:57;;;;;;;18.23;10.43;;;26.80;68.20;;;;;;7675065;22;83101;-70
2023/06/23 04:40:58;;;;;;;15.45;10.88;;;26.80;68.30;;;;;;7674887;22;83315;-59
2023/06/23 04:43:58;;;;;;;14.90;11.43;;;26.80;68.40;;;;;;7674657;22;83499;-64
2023/06/23 04:46:59;;;;;;;19.20;12.27;;;26.80;68.40;;;;;;7671478;22;83035;-64
2023/06/23 04:49:59;;;;;;;13.90;11.35;;;26.80;68.60;;;;;;7670333;22;83868;-64
2023/06/23 04:53:00;;;;;;;14.82;11.63;;;26.90;68.50;;;;;;7671752;22;82922;-63
2023/06/23 04:56:01;;;;;;;15.32;11.35;;;26.80;68.40;;;;;;7671410;22;83156;-63
2023/06/23 04:59:01;;;;;;;19.50;11.30;;;26.80;68.50;;;;;;7566370;22;84991;-63
2023/06/23 05:02:02;;;;;;;22.48;12.95;;;26.80;68.50;;;;;;7565260;22;84628;-64
2023/06/23 05:05:03;;;;;;;17.90;12.18;;;26.70;69.00;;;;;;7641955;22;83283;-63
2023/06/23 05:08:03;;;;;;;18.35;12.10;;;26.70;69.20;;;;;;7672164;22;83178;-63
2023/06/23 05:11:05;;;;;;;20.70;11.23;;;26.70;69.20;;;;;;7672783;22;82886;-63
2023/06/23 05:14:06;;;;;;;15.77;11.70;;;26.70;69.20;;;;;;7673521;22;83250;-63
2023/06/23 05:17:06;;;;;;;13.38;11.43;;;26.70;69.10;;;;;;7673020;22;83766;-61
2023/06/23 05:20:07;;;;;;;17.98;11.32;;;26.70;69.30;;;;;;7674379;22;83153;-62
2023/06/23 05:23:08;;;;;;;17.65;11.55;;;26.80;69.00;;;;;;7674877;22;82758;-62
2023/06/23 05:26:08;;;;;;;19.35;11.95;;;26.80;69.30;;;;;;7674195;22;83083;-62
2023/06/23 05:29:09;;;;;;;17.40;12.85;;;26.80;69.30;;;;;;7673152;22;83466;-62
2023/06/23 05:32:09;;;;;;;16.33;12.52;;;26.80;69.60;;;;;;7668437;22;83326;-62
2023/06/23 05:35:10;;;;;;;17.90;11.90;;;26.80;69.60;;;;;;7654360;22;83728;-57
2023/06/23 05:38:10;;;;;;;17.45;13.15;;;26.90;69.60;;;;;;7641218;22;84134;-56
2023/06/23 05:41:11;;;;;;;23.10;12.73;;;26.90;69.80;;;;;;7642163;22;83436;-56
2023/06/23 05:44:11;;;;;;;19.48;13.30;;;26.90;69.70;;;;;;7656281;22;83750;-58
2023/06/23 05:47:12;;;;;;;21.35;12.55;;;26.90;70.00;;;;;;7666280;22;82938;-57
2023/06/23 05:50:12;;;;;;;18.70;12.13;;;26.90;69.90;;;;;;7660289;22;83885;-57
2023/06/23 05:53:13;;;;;;;17.60;12.38;;;26.90;70.00;;;;;;7668965;22;82998;-63
2023/06/23 05:56:14;;;;;;;20.88;12.88;;;27.00;70.00;;;;;;7670389;22;83336;-63
2023/06/23 05:59:14;;;;;;;16.98;12.57;;;26.90;70.10;;;;;;7670152;22;83404;-62
2023/06/23 06:02:15;;;;;;;19.02;12.07;;;27.00;70.20;;;;;;7642058;22;84883;-62
2023/06/23 06:05:17;;;;;;;20.10;13.07;;;27.00;70.50;;;;;;7669320;22;83690;-62
2023/06/23 06:08:18;;;;;;;19.27;12.57;;;27.00;70.40;;;;;;7668612;22;83369;-62
2023/06/23 06:11:18;;;;;;;19.40;12.82;;;27.00;70.50;;;;;;7669345;22;83871;-63
2023/06/23 06:14:18;;;;;;;22.17;12.75;;;26.90;71.30;;;;;;7647882;22;83888;-62
2023/06/23 06:17:19;;;;;;;32.13;14.05;;;26.90;71.70;;;;;;7669774;22;84584;-63
2023/06/23 06:20:19;;;;;;;17.10;12.20;;;26.90;71.70;;;;;;7670312;22;83478;-63
2023/06/23 06:23:20;;;;;;;17.73;11.95;;;26.90;72.20;;;;;;7670450;22;83416;-63
2023/06/23 06:26:20;;;;;;;17.98;13.27;;;26.90;73.60;;;;;;7669504;22;83281;-62
2023/06/23 06:29:21;;;;;;;19.13;13.53;;;26.80;75.30;;;;;;7616759;22;1244276;-67
2023/06/23 06:32:22;;;;;;;20.60;13.18;;;26.70;75.00;;;;;;7670243;22;83858;-62
2023/06/23 06:35:22;;;;;;;18.35;12.73;;;26.80;74.30;;;;;;7672314;22;83033;-61
2023/06/23 06:38:23;;;;;;;23.05;13.93;;;26.80;74.50;;;;;;7672765;22;83308;-61
2023/06/23 06:41:23;;;;;;;24.67;13.48;;;26.70;74.20;;;;;;7672242;22;82950;-62
2023/06/23 06:44:25;;;;;;;20.02;12.25;;;26.70;72.80;;;;;;7672197;22;83215;-62
2023/06/23 06:47:25;;;;;;;25.65;12.43;;;26.70;71.10;;;;;;7669206;22;83013;-64
2023/06/23 06:50:26;;;;;;;19.23;10.45;;;26.70;70.60;;;;;;7674146;22;83251;-71
2023/06/23 06:53:26;;;;;;;18.08;9.27;;;26.60;69.80;;;;;;7672945;22;82889;-71
2023/06/23 06:56:27;;;;;;;17.17;7.95;;;26.60;68.80;;;;;;7650965;22;84181;-72
2023/06/23 06:59:27;;;;;;;15.38;7.43;;;26.60;69.00;;;;;;7679038;22;80508;-73
2023/06/23 07:02:28;;;;;;;20.15;9.10;;;26.50;69.50;;;;;;7662729;22;80464;-75
2023/06/23 07:05:28;;;;;;;17.30;7.50;;;26.60;69.50;;;;;;7677967;22;81406;-72
2023/06/23 07:08:29;;;;;;;12.90;6.60;;;26.50;70.50;;;;;;7677934;22;80251;-73
2023/06/23 07:11:31;;;;;;;16.85;6.57;;;26.50;71.00;;;;;;7651462;22;83690;-72
2023/06/23 07:14:32;;;;;;;16.58;7.85;;;26.50;71.00;;;;;;7678085;22;80109;-71
2023/06/23 07:17:33;;;;;;;21.38;7.20;;;26.50;71.40;;;;;;7678102;22;80642;-73
2023/06/23 07:20:33;;;;;;;25.85;8.07;;;26.50;72.90;;;;;;7678557;22;81423;-71
2023/06/23 07:23:34;;;;;;;24.63;9.07;;;25.90;75.70;;;;;;7678467;22;81482;-73
2023/06/23 07:26:37;;;;;;;15.35;7.40;;;25.90;76.40;;;;;;7677145;22;80590;-55
2023/06/23 07:29:37;;;;;;;20.02;8.55;;;25.40;77.60;;;;;;7678036;22;80644;-57
2023/06/23 07:32:38;;;;;;;24.83;7.55;;;25.00;79.00;;;;;;7677107;22;80826;-56
2023/06/23 07:35:38;;;;;;;32.38;9.40;;;24.90;79.60;;;;;;7676049;22;81177;-56
2023/06/23 07:38:39;;;;;;;24.40;8.00;;;25.10;78.60;;;;;;7677317;22;79978;-57
2023/06/23 07:41:40;;;;;;;24.77;8.80;;;25.10;78.30;;;;;;7650892;22;80619;-56
2023/06/23 07:44:40;;;;;;;17.80;7.35;;;24.90;78.60;;;;;;7676738;22;80215;-56
2023/06/23 07:47:41;;;;;;;13.38;7.53;;;24.80;78.80;;;;;;7676692;22;80458;-56
2023/06/23 07:50:43;;;;;;;21.30;8.25;;;24.90;78.80;;;;;;7676783;22;80502;-57
2023/06/23 07:53:44;;;;;;;15.65;8.45;;;25.30;76.90;;;;;;7677202;22;81205;-56
2023/06/23 07:56:44;;;;;;;26.73;9.30;;;25.60;76.00;;;;;;7662634;22;80449;-57
2023/06/23 07:59:45;;;;;;;16.42;7.75;;;25.80;75.10;;;;;;7650892;22;81481;-57
2023/06/23 08:02:45;;;;;;;21.70;8.77;;;25.90;74.50;;;;;;7677395;22;80148;-57
2023/06/23 08:05:46;;;;;;;19.05;8.73;;;26.00;74.00;;;;;;7677600;22;81118;-57
2023/06/23 08:08:48;;;;;;;16.77;7.80;;;26.10;73.70;;;;;;7676232;22;80891;-56
2023/06/23 08:11:48;;;;;;;16.45;8.00;;;26.20;73.40;;;;;;7678190;22;80656;-55
2023/06/23 08:14:49;;;;;;;14.40;8.65;;;26.20;73.10;;;;;;7678059;22;80980;-56
2023/06/23 08:17:49;;;;;;;22.63;9.13;;;26.30;72.80;;;;;;7677209;22;80702;-57
2023/06/23 08:20:50;;;;;;;17.40;7.80;;;26.30;72.70;;;;;;7678214;22;80476;-63
2023/06/23 08:23:50;;;;;;;14.05;7.82;;;26.40;72.40;;;;;;7678339;22;80432;-64
2023/06/23 08:26:51;;;;;;;19.25;9.20;;;26.40;72.30;;;;;;7677608;22;80648;-63
2023/06/23 08:29:51;;;;;;;22.95;9.35;;;26.30;72.40;;;;;;7677057;22;80255;-62
2023/06/23 08:32:52;;;;;;;21.92;8.68;;;26.30;72.30;;;;;;7677184;22;80569;-63
2023/06/23 08:35:52;;;;;;;18.65;8.23;;;26.40;72.20;;;;;;7677222;22;80804;-63
2023/06/23 08:38:53;;;;;;;18.83;8.85;;;26.40;72.20;;;;;;7642470;22;81035;-63
2023/06/23 08:41:54;;;;;;;16.45;7.95;;;26.40;72.00;;;;;;7674461;22;80875;-66
2023/06/23 08:44:54;;;;;;;22.92;8.00;;;26.50;71.90;;;;;;7679709;22;80484;-67
2023/06/23 08:47:56;;;;;;;18.20;9.43;;;26.40;72.90;;;;;;7679269;22;80871;-64
2023/06/23 08:50:57;;;;;;;17.65;8.48;;;26.50;73.30;;;;;;7678627;22;80770;-64
2023/06/23 08:53:57;;;;;;;23.55;7.72;;;26.50;73.60;;;;;;7677811;22;80134;-65
2023/06/23 08:56:58;;;;;;;21.33;7.85;;;26.50;74.00;;;;;;7677796;22;80072;-65
2023/06/23 08:59:58;;;;;;;19.00;8.40;;;26.50;73.90;;;;;;7678105;22;80292;-64
2023/06/23 09:02:59;;;;;;;23.23;8.95;;;26.50;74.20;;;;;;7677519;22;80535;-63
2023/06/23 09:06:00;;;;;;;17.90;9.25;;;26.50;74.60;;;;;;7679043;22;81034;-64
2023/06/23 09:09:01;;;;;;;18.95;8.38;;;26.50;75.30;;;;;;7677522;22;80796;-64
2023/06/23 09:12:01;;;;;;;22.27;8.60;;;26.50;75.50;;;;;;7679096;22;80381;-62
2023/06/23 09:15:02;;;;;;;17.02;9.27;;;26.50;75.40;;;;;;7678908;22;80423;-63
2023/06/23 09:18:02;;;;;;;20.25;8.35;;;26.50;75.50;;;;;;7678387;22;80879;-62
2023/06/23 09:21:03;;;;;;;13.50;7.40;;;26.50;75.10;;;;;;7678097;22;80473;-63
2023/06/23 09:24:04;;;;;;;14.75;7.60;;;26.50;75.00;;;;;;7676268;22;80444;-64
2023/06/23 09:27:04;;;;;;;12.95;7.22;;;26.50;74.60;;;;;;7652250;22;80247;-63
2023/06/23 09:30:05;;;;;;;14.73;7.63;;;26.50;74.60;;;;;;7651770;22;81954;-64
2023/06/23 09:33:05;;;;;;;13.45;6.60;;;26.50;74.90;;;;;;7677175;22;80448;-63
2023/06/23 09:36:06;;;;;;;18.10;7.70;;;26.50;74.80;;;;;;7678612;22;80857;-64
2023/06/23 09:39:06;;;;;;;12.48;6.85;;;26.50;74.50;;;;;;7678191;22;80436;-63
2023/06/23 09:42:08;;;;;;;14.10;6.53;;;26.50;74.10;;;;;;7650338;22;81620;-63
2023/06/23 09:45:09;;;;;;;15.00;6.65;;;26.60;73.80;;;;;;7677256;22;80735;-64
2023/06/23 09:48:09;;;;;;;11.82;6.57;;;26.60;73.80;;;;;;7678701;22;80245;-63
2023/06/23 09:51:11;;;;;;;15.30;6.95;;;26.60;74.00;;;;;;7679135;22;80943;-63
2023/06/23 09:54:12;;;;;;;14.50;7.32;;;26.60;74.20;;;;;;7676508;22;80994;-64
2023/06/23 09:57:12;;;;;;;17.65;7.15;;;26.60;74.00;;;;;;7677052;22;80287;-64
2023/06/23 10:00:13;;;;;;;14.05;6.63;;;26.60;74.00;;;;;;7651263;22;81105;-63
2023/06/23 10:03:13;;;;;;;15.27;7.90;;;26.60;73.80;;;;;;7677676;22;80516;-63
2023/06/23 10:06:14;;;;;;;13.98;7.28;;;26.70;73.70;;;;;;7678566;22;80305;-64
2023/06/23 10:09:15;;;;;;;17.83;9.15;;;26.70;73.70;;;;;;7678213;22;80937;-65
2023/06/23 10:12:16;;;;;;;16.50;6.93;;;26.70;73.70;;;;;;7678562;22;80735;-64
2023/06/23 10:15:16;;;;;;;17.60;7.93;;;26.80;73.80;;;;;;7676087;22;80768;-64
2023/06/23 10:18:17;;;;;;;15.02;8.10;;;26.80;74.20;;;;;;7678081;22;80117;-64
2023/06/23 10:21:17;;;;;;;14.90;8.65;;;26.80;74.70;;;;;;7677202;22;80587;-63
2023/06/23 10:24:18;;;;;;;15.30;7.97;;;26.90;74.70;;;;;;7649486;22;82008;-63
2023/06/23 10:27:18;;;;;;;12.40;7.57;;;26.90;74.20;;;;;;7677247;22;80480;-63
2023/06/23 10:30:19;;;;;;;12.35;7.40;;;27.00;74.10;;;;;;7678138;22;80558;-74
2023/06/23 10:33:19;;;;;;;14.15;7.65;;;27.00;74.40;;;;;;7680564;22;81629;-73
2023/06/23 10:36:20;;;;;;;19.42;7.40;;;27.00;74.20;;;;;;7680114;22;80709;-73
2023/06/23 10:39:21;;;;;;;14.63;7.90;;;27.00;73.90;;;;;;7677792;22;80996;-72
2023/06/23 10:42:22;;;;;;;15.60;8.48;;;27.00;74.00;;;;;;7667712;22;80534;-71
2023/06/23 10:45:22;;;;;;;14.85;7.82;;;27.10;74.10;;;;;;7651681;22;80383;-72
2023/06/23 10:48:23;;;;;;;15.60;8.13;;;27.00;74.10;;;;;;7679010;22;80739;-72
2023/06/23 10:51:23;;;;;;;12.93;8.32;;;27.00;74.30;;;;;;7697491;22;80539;-74
2023/06/23 10:54:24;;;;;;;19.77;9.75;;;27.00;74.80;;;;;;7698647;22;80765;-75
2023/06/23 10:57:25;;;;;;;15.75;8.15;;;27.00;74.80;;;;;;7697970;22;80554;-73
2023/06/23 11:00:25;;;;;;;13.55;7.55;;;27.00;74.40;;;;;;7697468;22;80915;-73
2023/06/23 11:03:26;;;;;;;15.30;8.07;;;27.00;74.80;;;;;;7670827;22;81492;-74
2023/06/23 11:06:26;;;;;;;16.15;8.75;;;27.00;75.00;;;;;;7681013;22;80162;-73
2023/06/23 11:09:27;;;;;;;19.67;9.52;;;27.00;74.80;;;;;;7650956;22;83840;-73
2023/06/23 11:12:27;;;;;;;15.77;8.68;;;27.00;75.80;;;;;;7678388;22;80838;-72
2023/06/23 11:15:28;;;;;;;13.63;8.95;;;26.90;76.30;;;;;;7677391;22;80447;-73
2023/06/23 11:18:28;;;;;;;17.08;8.80;;;26.90;76.10;;;;;;7676968;22;80201;-73
2023/06/23 11:21:29;;;;;;;14.25;8.40;;;26.90;76.10;;;;;;7678397;22;80285;-73
2023/06/23 11:24:29;;;;;;;19.80;9.40;;;26.90;76.10;;;;;;7665950;22;83912;-72
2023/06/23 11:27:30;;;;;;;20.67;9.77;;;26.90;76.90;;;;;;7681683;22;80921;-72
2023/06/23 11:30:31;;;;;;;20.13;9.07;;;27.00;76.60;;;;;;7678385;22;81134;-72
2023/06/23 11:33:31;;;;;;;17.80;10.35;;;27.00;76.50;;;;;;7675710;22;80697;-72
2023/06/23 11:36:32;;;;;;;17.63;9.32;;;27.00;76.90;;;;;;7672094;22;83025;-71
2023/06/23 11:39:32;;;;;;;16.58;9.52;;;27.00;76.90;;;;;;7678299;22;82755;-74
2023/06/23 11:42:33;;;;;;;20.05;10.50;;;27.00;77.00;;;;;;7677763;22;80862;-75
2023/06/23 11:45:33;;;;;;;21.02;9.60;;;27.00;77.30;;;;;;7674035;22;82629;-74
2023/06/23 11:48:36;;;;;;;20.77;9.75;;;26.90;77.80;;;;;;7677958;22;84819;-71
2023/06/23 11:51:36;;;;;;;16.42;9.65;;;26.90;77.40;;;;;;7677167;22;80921;-73
2023/06/23 11:54:37;;;;;;;20.25;10.63;;;26.90;77.30;;;;;;7661761;22;80567;-74
2023/06/23 11:57:37;;;;;;;21.77;10.57;;;26.90;77.50;;;;;;7641335;22;83336;-72
2023/06/23 12:00:38;;;;;;;19.50;9.48;;;26.90;77.70;;;;;;7644459;22;84141;-71
2023/06/23 12:03:40;;;;;;;23.85;10.38;;;26.90;77.60;;;;;;7676080;22;82935;-72
2023/06/23 12:06:40;;;;;;;27.25;11.23;;;26.90;77.70;;;;;;7674411;22;83416;-72
2023/06/23 12:09:41;;;;;;;17.92;9.63;;;26.90;78.00;;;;;;7674722;22;83276;-72
2023/06/23 12:12:43;;;;;;;22.48;10.32;;;26.90;78.20;;;;;;7677875;22;82939;-69
2023/06/23 12:15:43;;;;;;;30.08;10.00;;;26.90;78.40;;;;;;7674026;22;83956;-74
2023/06/23 12:18:44;;;;;;;18.63;9.70;;;26.80;78.60;;;;;;7674321;22;83175;-73
2023/06/23 12:21:46;;;;;;;21.48;10.38;;;26.80;78.50;;;;;;7678704;22;83767;-73
2023/06/23 12:24:47;;;;;;;16.92;9.82;;;26.80;78.60;;;;;;7675130;22;82906;-73
2023/06/23 12:27:47;;;;;;;20.55;10.45;;;26.80;78.60;;;;;;7677705;22;81764;-72
2023/06/23 12:30:48;;;;;;;24.38;10.13;;;26.80;78.70;;;;;;7674113;22;83537;-74
2023/06/23 12:33:48;;;;;;;19.23;10.18;;;26.90;78.70;;;;;;7673581;22;82965;-73
2023/06/23 12:36:49;;;;;;;20.17;10.15;;;26.90;78.80;;;;;;7673784;22;83150;-72
2023/06/23 12:39:49;;;;;;;16.02;9.32;;;26.80;78.60;;;;;;7672994;22;83139;-60
2023/06/23 12:42:50;;;;;;;20.75;10.48;;;26.90;78.60;;;;;;7677225;22;81813;-60
2023/06/23 12:45:52;;;;;;;15.13;10.18;;;26.80;78.50;;;;;;7658472;22;83281;-61
2023/06/23 12:48:54;;;;;;;13.57;10.60;;;26.80;78.50;;;;;;7672925;22;82959;-61
2023/06/23 12:51:54;;;;;;;20.23;9.88;;;26.90;78.80;;;;;;7645314;22;84223;-59
2023/06/23 12:54:56;;;;;;;21.55;11.10;;;26.80;79.00;;;;;;7678401;22;83952;-61
2023/06/23 12:57:57;;;;;;;26.60;10.80;;;26.80;79.90;;;;;;7674812;22;83124;-71
2023/06/23 13:00:59;;;;;;;25.50;10.73;;;26.70;79.80;;;;;;7674597;22;83155;-71
2023/06/23 13:03:59;;;;;;;23.52;10.07;;;26.80;79.80;;;;;;7673241;22;83893;-73
2023/06/23 13:07:00;;;;;;;16.88;10.38;;;26.80;79.60;;;;;;7675141;22;83941;-72
2023/06/23 13:10:00;;;;;;;18.92;9.93;;;26.80;79.50;;;;;;7675426;22;83430;-73
2023/06/23 13:13:01;;;;;;;25.20;10.95;;;26.80;80.00;;;;;;7678730;22;82965;-72
2023/06/23 13:16:02;;;;;;;19.30;11.23;;;26.70;80.30;;;;;;7674927;22;82773;-60
2023/06/23 13:19:02;;;;;;;26.88;12.70;;;26.50;81.70;;;;;;7674295;22;82820;-60
2023/06/23 13:22:03;;;;;;;22.15;12.35;;;26.40;82.60;;;;;;7674478;22;82916;-61
2023/06/23 13:25:04;;;;;;;23.75;14.98;;;26.50;82.10;;;;;;7674296;22;83275;-61
2023/06/23 13:28:04;;;;;;;20.58;12.57;;;26.50;82.40;;;;;;7674270;22;85185;-60
2023/06/23 13:31:05;;;;;;;20.05;12.95;;;26.50;83.40;;;;;;7647803;22;84022;-60
2023/06/23 13:34:06;;;;;;;24.38;13.02;;;26.20;85.20;;;;;;7674554;22;84368;-61
2023/06/23 13:37:06;;;;;;;25.98;11.98;;;26.10;86.30;;;;;;7672751;22;82728;-61
2023/06/23 13:40:10;;;;;;;24.13;13.40;;;26.10;86.90;;;;;;7674181;22;82925;-61
2023/06/23 13:43:11;;;;;;;24.90;12.43;;;26.20;86.50;;;;;;7675162;22;83406;-61
2023/06/23 13:46:13;;;;;;;21.52;12.98;;;26.20;86.60;;;;;;7674525;22;83312;-62
2023/06/23 13:49:14;;;;;;;21.00;12.70;;;26.10;88.40;;;;;;7673869;22;82837;-62
2023/06/23 13:52:14;;;;;;;18.27;12.98;;;25.90;89.40;;;;;;7662984;22;83679;-57
2023/06/23 13:55:15;;;;;;;25.08;12.13;;;25.90;89.30;;;;;;7659524;22;88595;-54
2023/06/23 13:58:15;;;;;;;28.33;12.93;;;25.90;89.50;;;;;;7661083;22;85164;-61
2023/06/23 14:01:16;;;;;;;18.60;11.63;;;25.90;89.50;;;;;;7671286;22;83715;-60
2023/06/23 14:04:16;;;;;;;21.52;12.90;;;26.00;89.20;;;;;;7669626;22;83161;-60
2023/06/23 14:07:17;;;;;;;23.30;13.25;;;26.20;88.30;;;;;;7650507;22;83119;-61
2023/06/23 14:10:17;;;;;;;18.90;11.85;;;26.40;87.30;;;;;;7672463;22;83556;-75
2023/06/23 14:13:18;;;;;;;17.55;11.15;;;26.50;86.50;;;;;;7671885;22;83394;-74
2023/06/23 14:16:18;;;;;;;22.80;13.02;;;26.60;85.90;;;;;;7675320;22;82873;-74
2023/06/23 14:19:19;;;;;;;20.90;12.15;;;26.70;85.50;;;;;;7676975;22;82929;-74
2023/06/23 14:22:19;;;;;;;22.35;11.63;;;26.80;85.00;;;;;;7678213;22;83376;-74
2023/06/23 14:25:20;;;;;;;23.48;12.38;;;26.80;84.70;;;;;;7678665;22;82980;-74
2023/06/23 14:28:20;;;;;;;24.17;12.55;;;26.80;84.10;;;;;;7674086;22;83846;-58
2023/06/23 14:31:21;;;;;;;22.70;12.98;;;26.90;83.90;;;;;;7671270;22;83101;-58
2023/06/23 14:34:21;;;;;;;19.08;11.43;;;26.90;83.50;;;;;;7673242;22;84230;-59
2023/06/23 14:37:22;;;;;;;17.40;11.73;;;27.00;83.30;;;;;;7675021;22;83004;-59
2023/06/23 14:40:22;;;;;;;19.55;13.60;;;27.00;82.70;;;;;;7673576;22;83368;-59
2023/06/23 14:43:23;;;;;;;23.58;12.88;;;27.10;82.80;;;;;;7633103;22;84445;-57
2023/06/23 14:46:23;;;;;;;21.63;12.43;;;27.10;82.80;;;;;;7671649;22;83557;-60
2023/06/23 14:49:24;;;;;;;24.10;13.40;;;27.10;83.20;;;;;;7670707;22;83590;-59
2023/06/23 14:52:24;;;;;;;24.52;13.18;;;27.10;83.20;;;;;;7672459;22;83030;-59
2023/06/23 14:55:25;;;;;;;25.08;14.32;;;27.10;82.90;;;;;;7673396;22;84192;-57
2023/06/23 14:58:26;;;;;;;23.17;13.27;;;27.10;83.30;;;;;;7668460;22;83859;-59
2023/06/23 15:01:27;;;;;;;24.20;13.57;;;27.10;83.10;;;;;;7672245;22;83329;-60
2023/06/23 15:04:27;;;;;;;23.85;12.98;;;27.10;83.40;;;;;;7675037;22;83833;-56
2023/06/23 15:07:28;;;;;;;20.35;12.63;;;27.20;83.30;;;;;;7667617;22;83139;-56
2023/06/23 15:10:29;;;;;;;22.42;13.07;;;27.20;83.30;;;;;;7669306;22;83247;-58
2023/06/23 15:13:29;;;;;;;22.63;13.25;;;27.20;83.50;;;;;;7668736;22;84670;-56
2023/06/23 15:16:30;;;;;;;22.25;12.52;;;27.20;83.50;;;;;;7671528;22;83215;-57
2023/06/23 15:19:30;;;;;;;30.15;13.30;;;27.20;83.90;;;;;;7673249;22;83259;-57